Anza Borrego Desert State Park, California Weather observations

Data are for 10 minute period ending at time listed.
 Day   Time   Solar   Ave.   Ave.  Ave.  Vector  Max.   Baro.   Total    
  of    of     Rad.   Air    Rel.  Wind   Wind   Wind  Press.  Precip.   
Year   Day            Temp.  Hum.  Speed  Dir.   Gust                    
2026   (PST)  Kw/m2    F      %     mph   deg.    mph    mb.     in.     
-------------------------------------------------------------------------
 127   15:40   0.56   95.8    13   15.5   251    26.3   980.2    0.00 
 127   15:50   0.52   95.6    13   14.9   268    27.2   980.2    0.00 
 127   16:00   0.49   95.8    12   13.7   272    18.0   980.1    0.00 
 127   16:10   0.45   95.9    12   13.0   273    19.8   980.1    0.00 
 127   16:20   0.41   95.1    13   15.4   274    22.1   980.1    0.00 
 127   16:30   0.38   94.4    13   17.9   278    25.9   980.0    0.00 
 127   16:40   0.34   93.8    14   19.2   263    25.6   980.0    0.00 
 127   16:50   0.31   93.5    15   17.5   268    28.0   980.1    0.00 
 127   17:00   0.27   92.8    16   21.2   262    31.3   980.0    0.00 
 127   17:10   0.24   91.7    18   22.3   266    31.0   980.0    0.00 
 127   17:20   0.20   91.2    18   20.3   277    33.3   979.9    0.00 
 127   17:30   0.04   90.4    19   23.9   276    35.1   979.8    0.00 
 127   17:40   0.03   90.2    19   20.6   281    30.2   979.8    0.00 
 127   17:50   0.03   89.8    21   20.9   284    30.1   979.8    0.00 
 127   18:00   0.02   89.7    20   19.7   285    30.5   979.8    0.00 
 127   18:10   0.02   89.5    20   21.1   288    28.7   979.8    0.00 
 127   18:20   0.01   89.2    20   21.9   287    33.2   979.9    0.00 
 127   18:30   0.01   89.2    19   22.2   288    32.1   980.0    0.00 
 127   18:40   0.00   89.6    16   16.9   299    29.9   980.0    0.00 
 127   18:50   0.00   89.6    16   15.5   299    26.0   980.1    0.00 
 127   19:00   0.00   89.6    14   16.4   302    35.9   980.2    0.00 
 127   19:10   0.00   89.5    14   17.5   305    30.6   980.3    0.00 
 127   19:20   0.00   89.0    16   20.0   308    36.9   980.4    0.00 
 127   19:30   0.00   89.3    14   16.2   306    30.7   980.6    0.00 
 127   19:40   0.00   89.1    13   15.0   308    33.0   980.8    0.00 
 127   19:50   0.00   89.2    11    9.9   299    18.6   980.9    0.00 
 127   20:00   0.00   89.4    10    6.2   292    14.8   981.2    0.00 
 127   20:10   0.00   88.4    15    9.1   121    14.9   981.4    0.00 
 127   20:20   0.00   88.0    14    7.3   117    19.0   981.5    0.00 
 127   20:30   0.00   88.3    14    8.3    96    22.8   981.7    0.00 
 127   20:40   0.00   87.5    14   11.3   109    23.5   981.6    0.00 
 127   20:50   0.00   87.6    13    5.7    76    25.4   981.8    0.00 
 127   21:00   0.00   87.9    14    8.7    92    17.2   981.9    0.00 
 127   21:10   0.00   86.1    16   11.5   133    16.0   981.8    0.00 
 127   21:20   0.00   85.5    16    7.5   100    19.0   981.8    0.00 
 127   21:30   0.00   86.8    13    7.5   132    20.1   981.7    0.00 
 127   21:40   0.00   85.4    14    7.9   133    12.9   981.7    0.00 
 127   21:50   0.00   85.3    15   12.1    94    20.8   981.5    0.00 
 127   22:00   0.00   85.1    15    7.6   131    11.5   981.6    0.00 
 127   22:10   0.00   84.9    14    9.5   132    14.7   981.6    0.00 
 127   22:20   0.00   84.2    15   13.5   142    17.2   981.5    0.00 
 127   22:30   0.00   84.3    15   11.7   147    17.4   981.7    0.00 
 127   22:40   0.00   84.2    15   11.7   140    16.4   981.6    0.00 
 127   22:50   0.00   82.6    16   12.2   167    15.0   981.7    0.00 
 127   23:00   0.00   83.0    16   10.3   153    14.1   981.7    0.00 
 127   23:10   0.00   82.5    16    8.9   145    12.3   981.8    0.00 
 127   23:20   0.00   80.8    17    4.9   177     9.9   981.8    0.00 
 127   23:30   0.00   81.8    16    3.7   123     8.5   981.8    0.00 
 127   23:40   0.00   81.9    16    5.1   190     9.4   981.7    0.00 
 127   23:50   0.00   80.1    18    7.6   173    11.0   981.7    0.00 
 128    0:00   0.00   79.4    18    3.2   207     7.2   981.7    0.00 
 128    0:10   0.00   80.2    17    3.6   169     7.7   981.6    0.00 
 128    0:20   0.00   81.6    17    5.1   182     9.9   981.5    0.00 
 128    0:30   0.00   79.9    17    5.6   205    10.5   981.5    0.00 
 128    0:40   0.00   78.2    18    5.2   207     9.1   981.4    0.00 
 128    0:50   0.00   78.0    19    2.3   270     6.7   981.2    0.00 
 128    1:00   0.00   80.1    18    3.7   240    12.6   981.2    0.00 
 128    1:10   0.00   80.7    18    4.6   216     9.6   981.1    0.00 
 128    1:20   0.00   81.4    17    3.5   209     7.5   981.1    0.00 
 128    1:30   0.00   80.0    18    5.9   237     9.1   981.0    0.00 
 128    1:40   0.00   78.3    18    4.0   234     7.5   981.0    0.00 
 128    1:50   0.00   79.1    18    2.3   231     5.6   980.9    0.00 
 128    2:00   0.00   77.4    19    2.2   270     5.6   981.0    0.00 
 128    2:10   0.00   77.0    20    3.0   274     6.3   980.9    0.00 
 128    2:20   0.00   78.1    20    5.1   217     7.7   980.9    0.00 
 128    2:30   0.00   77.6    20    3.4   239     5.8   980.8    0.00 
 128    2:40   0.00   79.4    19    3.2   195     7.8   980.8    0.00 
 128    2:50   0.00   78.5    20    6.7   183     8.8   980.8    0.00 
 128    3:00   0.00   77.7    20    5.7   198     7.2   980.7    0.00 
 128    3:10   0.00   78.2    20    5.3   207     8.4   980.8    0.00 
 128    3:20   0.00   78.8    20    5.1   195     8.9   980.8    0.00 
 128    3:30   0.00   78.6    20    5.8   198     8.3   980.8    0.00 
 128    3:40   0.00   77.9    20    5.0   197     8.0   980.8    0.00 
 128    3:50   0.00   76.6    20    4.3   214     6.8   980.9    0.00 
 128    4:00   0.00   78.9    20    4.8   166    10.5   980.9    0.00 
 128    4:10   0.00   79.8    20    5.0   200     7.9   980.9    0.00 
 128    4:20   0.00   76.7    22    5.3   219     6.5   981.0    0.00 
 128    4:30   0.00   74.3    23    4.8   222     7.1   981.0    0.00 
 128    4:40   0.00   73.1    23    4.5   209     6.1   981.1    0.00 
 128    4:50   0.00   70.8    24    3.1   207     4.8   981.1    0.00 
 128    5:00   0.01   70.2    25    2.8   251     6.3   981.2    0.00 
 128    5:10   0.02   69.7    24    1.8   225     5.0   981.3    0.00 
 128    5:20   0.04   71.4    24    2.8   190     5.2   981.4    0.00 
 128    5:30   0.07   74.0    22    3.1   220     4.7   981.6    0.00 
 128    5:40   0.10   76.6    21    2.7   190     5.2   981.7    0.00 
 128    5:50   0.14   79.2    19    3.6   200     5.4   981.7    0.00 
 128    6:00   0.17   81.0    18    2.3   210     5.1   981.9    0.00 
 128    6:10   0.21   82.4    18    3.1   197     6.3   982.0    0.00 
 128    6:20   0.24   83.3    18    2.9   162     4.5   982.2    0.00 
 128    6:30   0.28   84.5    17    1.2   154     3.5   982.2    0.00 
 128    6:40   0.32   86.1    16    1.8   177     4.2   982.2    0.00 
 128    6:50   0.35   85.8    16    4.4   162     7.4   982.2    0.00 
 128    7:00   0.39   85.9    16    4.6   147     7.4   982.2    0.00 
 128    7:10   0.43   86.5    16    4.9   172     6.6   982.3    0.00 
 128    7:20   0.46   87.5    15    4.4   168     6.3   982.3    0.00 
 128    7:30   0.50   88.0    14    2.1   141     4.6   982.4    0.00 
 128    7:40   0.53   89.7    14    1.6   152     5.5   982.4    0.00 
 128    7:50   0.57   89.9    13    2.7   158     4.5   982.3    0.00 
 128    8:00   0.60   89.8    13    4.0   157     6.2   982.4    0.00 
 128    8:10   0.63   90.1    13    3.5   164     6.4   982.4    0.00 
 128    8:20   0.67   91.4    12    3.0   164     6.7   982.4    0.00 
 128    8:30   0.69   92.2    11    3.9   165     6.6   982.4    0.00 
 128    8:40   0.72   93.0    10    5.8   161     9.1   982.4    0.00 
 128    8:50   0.75   93.5    10    4.3   130     7.8   982.4    0.00 
 128    9:00   0.78   94.5    10    4.0   111     7.5   982.3    0.00 
 128    9:10   0.81   94.8    10    4.8   126    10.4   982.2    0.00 
 128    9:20   0.83   95.1     9    4.5   129    10.2   982.3    0.00 
 128    9:30   0.85   96.3     9    6.8   116    10.3   982.2    0.00 
 128    9:40   0.87   96.2     8    6.4   103    10.3   982.2    0.00 
 128    9:50   0.89   96.8     8    6.2   102     9.9   982.1    0.00 
 128   10:00   0.91   96.9     8    5.1   106     8.4   982.0    0.00 
 128   10:10   0.93   98.2     8    2.6    64     6.5   982.0    0.00 
 128   10:20   0.94   99.0     7    4.6    47     7.5   981.9    0.00 
 128   10:30   0.95   98.6     7    4.2    29     8.4   981.8    0.00 
 128   10:40   0.97   99.4     7    4.3   129     9.2   981.7    0.00 
 128   10:50   0.98  100.0     7    5.6    63    10.7   981.6    0.00 
 128   11:00   0.98   99.7     7    2.7   114     5.8   981.5    0.00 
 128   11:10   0.99  100.3     6    5.1   316    10.7   981.5    0.00 
 128   11:20   1.00  101.2     6    5.9   317    12.2   981.4    0.00 
 128   11:30   1.00  100.1     6    8.8   255    14.4   981.4    0.00 
 128   11:40   1.01  100.8     6    9.4   257    15.7   981.2    0.00 
 128   11:50   1.01  100.4     7    7.6   285    19.4   981.1    0.00 
 128   12:00   1.00  100.7     7    8.3   260    12.9   981.1    0.00 
 128   12:10   1.00  101.2     7    9.8   290    20.5   981.0    0.00 
 128   12:20   1.00  100.8     6    9.2   294    16.3   980.9    0.00 
 128   12:30   0.98  100.5     6    9.5   285    21.1   980.8    0.00 
 128   12:40   0.98  100.8     6    9.9   285    18.9   980.7    0.00 
 128   12:50   0.98  101.0     6   12.6   270    22.2   980.7    0.00 
 128   13:00   0.97  101.1     6   14.7   289    24.6   980.6    0.00 
 128   13:10   0.96  101.3     6   12.8   263    24.6   980.6    0.00 
 128   13:20   0.94  100.9     6   13.3   266    21.6   980.5    0.00 
 128   13:30   0.93  101.0     6   15.2   272    23.0   980.4    0.00 
 128   13:40   0.91  100.7     6   16.2   273    25.4   980.3    0.00 
 128   13:50   0.89  100.2     6   17.4   274    24.9   980.2    0.00 
 128   14:00   0.87  100.3     5   16.4   269    27.8   980.1    0.00 
 128   14:10   0.85  100.5     5   16.5   260    26.3   979.9    0.00 
 128   14:20   0.82  100.5     6   15.8   267    25.4   979.9    0.00 
 128   14:30   0.80   99.8     6   18.0   274    25.9   979.7    0.00 
 128   14:40   0.78  100.0     6   16.9   272    24.9   979.6    0.00 
 128   14:50   0.75   99.5     6   18.1   271    24.4   979.6    0.00 
 128   15:00   0.72   99.2     7   18.5   275    28.9   979.5    0.00 
 128   15:10   0.69   98.2     8   21.8   279    28.7   979.4    0.00 
 128   15:20   0.66   97.9     7   21.8   279    28.4   979.4    0.00 
 128   15:30   0.63   97.6     7   20.1   277    30.2   979.3    0.00 

Return to Anza Borrego Desert State Park graphs page.


Western Regional Climate Center,wrcc@dri.edu